SBBI

Bacacheri Airport

Airport
ICAO code
SBBI
IATA Code
BFH
Summary
ICAO Region
CARSAM
ICAO Territory
Location

Bacacheri, Parana

Serving
Curitiba
Elevation
10029 ft
Coordinates
25° 24' 12" S , 49° 14' 1" W
KCC
Metar
SBBI 231400Z 34012KT CAVOK 24/15 Q1019

Bacacheri Airport is an airport in Curitiba, Brazil. It is named after the neighbourhood where it is located.

Climatology

Humid subtropical/oceanic climate (Köppen climate classification Cfb)

Runways

Designator Length Width Surface Rops
18/36 1390 30 ASP No/No

Airport map

Aerial View

SKYbrary Partners:

Safety knowledge contributed by: